• Join FlightAware (Why Join?)
  • Login
  • US Flag 
09:48PM EDT


 

Airport Tracker/Info


-or-


 

Live Flight TrackerFlight Track Log ✈ UAL6136 ✈ 26-Apr-2013 ✈ KCHS - KORD

Flight Track Log - Related Links

Times and Time Zones

All times are in EDT time to prevent confusion due to time zone crossing. See the UAL6136 flight status page for this flight to view local times or setup timezone preferences in your user account.

Time Position Orientation Groundspeed Altitude Reporting Facility
EDT Latitude Longitude Course Direction KTS MPH feet Rate Location/Type
04:13PM 33.0647 -80.1042 337° Northwest 255 293 6,300  Level Jacksonville Center
04:14PM 33.1303 -80.1392 336° Northwest 255 293 7,500 1,740 Climbing Jacksonville Center
04:15PM 33.1978 -80.1794 333° Northwest 267 307 9,800 1,620 Climbing Jacksonville Center
04:16PM 33.2717 -80.2194 336° Northwest 267 307 10,800 1,380 Climbing Jacksonville Center
04:17PM 33.3317 -80.2492 337° Northwest  Level FlightAware Approximate
04:17PM 33.3583 -80.2714 333° Northwest 296 341 12,600  Level Jacksonville Center
04:18PM 33.4283 -80.3242 328° Northwest 332 382 14,800 1,860 Climbing Jacksonville Center
04:19PM 33.5108 -80.3817 330° Northwest 339 390 16,400 1,500 Climbing Jacksonville Center
04:20PM 33.5956 -80.4414 330° Northwest 344 396 17,900 1,500 Climbing Jacksonville Center
04:21PM 33.6781 -80.5017 329° Northwest 349 402 19,500 1,800 Climbing Jacksonville Center
04:22PM 33.7606 -80.5592 330° Northwest 349 402 21,500 1,800 Climbing Jacksonville Center
04:23PM 33.8431 -80.6172 330° Northwest 349 402 23,200 1,980 Climbing Jacksonville Center
04:24PM 33.9214 -80.6753 328° Northwest 344 396 25,500 2,040 Climbing Jacksonville Center
04:25PM 33.9972 -80.7283 330° Northwest 339 390 27,300 1,740 Climbing Jacksonville Center
04:26PM 34.0733 -80.7817 330° Northwest 329 379 29,000 1,620 Climbing Jacksonville Center
04:27PM 34.1472 -80.8375 328° Northwest 317 365 30,600 1,560 Climbing Jacksonville Center
04:28PM 34.2189 -80.8886 329° Northwest 312 359 32,200 840 Climbing Jacksonville Center
04:30PM 34.3681 -81.0014 328° Northwest 304 350 33,200 540 Climbing Atlanta Center
04:31PM 34.4489 -81.0589 330° Northwest 329 379 34,000 480 Climbing Atlanta Center
04:32PM 34.5422 -81.1236 330° Northwest 347 399 34,200 780 Climbing Atlanta Center
04:33PM 34.6272 -81.1864 329° Northwest 353 406 35,600 900 Climbing Atlanta Center
04:34PM 34.7081 -81.2467 328° Northwest 343 395 36,000 180 Climbing Atlanta Center
04:35PM 34.7928 -81.3072 330° Northwest 348 400 36,000  Level Atlanta Center
04:36PM 34.8797 -81.3753 327° Northwest 366 421 36,000  Level Atlanta Center
04:37PM 34.9689 -81.4383 330° Northwest 371 427 36,000  Level Atlanta Center
04:38PM 35.0600 -81.5064 329° Northwest 377 434 36,000  Level Atlanta Center
04:39PM 35.1489 -81.5722 329° Northwest 377 434 36,000  Level Atlanta Center
04:40PM 35.2294 -81.6333 328° Northwest 372 428 36,000  Level Atlanta Center
04:41PM 35.3183 -81.6994 329° Northwest 372 428 36,000  Level Atlanta Center
04:42PM 35.4072 -81.7658 329° Northwest 372 428 36,000  Level Atlanta Center
04:43PM 35.4981 -81.8347 328° Northwest 372 428 36,000  Level Atlanta Center
04:44PM 35.5933 -81.9064 329° Northwest 372 428 36,000  Level Atlanta Center
04:45PM 35.6819 -81.9703 330° Northwest 372 428 36,000  Level Atlanta Center
04:46PM 35.7750 -82.0372 330° Northwest 372 428 36,000  Level Atlanta Center
04:47PM 35.8658 -82.1042 329° Northwest 372 428 36,000  Level Atlanta Center
04:48PM 35.9522 -82.1714 328° Northwest 372 428 36,000  Level Atlanta Center
04:49PM 36.0283 -82.2311 328° Northwest 367 422 36,000  Level Atlanta Center
04:50PM 36.1253 -82.3036 329° Northwest 367 422 36,000  Level Atlanta Center
04:51PM 36.2117 -82.3711 328° Northwest 367 422 36,000  Level Atlanta Center
04:52PM 36.2981 -82.4364 329° Northwest 367 422 36,000  Level Atlanta Center
04:53PM 36.3867 -82.5042 328° Northwest 367 422 36,000  Level Atlanta Center
04:54PM 36.4728 -82.5697 329° Northwest 367 422 36,000  Level Atlanta Center
04:55PM 36.5592 -82.6378 328° Northwest 367 422 36,000  Level Atlanta Center
04:57PM 36.6989 -82.7458 328° Northwest 364 419 36,000  Level Indianapolis Center
04:58PM 36.7969 -82.8214 328° Northwest 355 409 36,000  Level Indianapolis Center
04:59PM 36.8794 -82.8856 328° Northwest 355 409 36,000  Level Indianapolis Center
05:00PM 36.9653 -82.9539 328° Northwest 361 415 36,000  Level Indianapolis Center
05:01PM 37.0581 -83.0264 328° Northwest 358 412 36,000  Level Indianapolis Center
05:02PM 37.1444 -83.0936 328° Northwest 364 419 36,000  Level Indianapolis Center
05:03PM 37.2297 -83.1617 328° Northwest 362 417 36,000  Level Indianapolis Center
05:04PM 37.3142 -83.2286 328° Northwest 361 415 36,000  Level Indianapolis Center
05:05PM 37.4128 -83.3056 328° Northwest 359 413 36,000  Level Indianapolis Center
05:06PM 37.4961 -83.3728 327° Northwest 356 410 36,000  Level Indianapolis Center
05:07PM 37.5806 -83.4397 328° Northwest 357 411 36,000  Level Indianapolis Center
05:08PM 37.6664 -83.5075 328° Northwest 363 418 36,000  Level Indianapolis Center
05:09PM 37.7561 -83.5706 331° Northwest 368 423 36,000  Level Indianapolis Center
05:10PM 37.8456 -83.6375 329° Northwest 371 427 36,000  Level Indianapolis Center
05:11PM 37.9500 -83.7133 330° Northwest 370 426 36,000  Level Indianapolis Center
05:12PM 38.0381 -83.7783 330° Northwest 367 422 36,000  Level Indianapolis Center
05:14PM 38.1256 -83.8442 329° Northwest 366 421 36,000  Level Indianapolis Center
05:15PM 38.2147 -83.9097 330° Northwest 368 423 36,000  Level Indianapolis Center
05:16PM 38.3025 -83.9769 329° Northwest 368 423 36,000  Level Indianapolis Center
05:17PM 38.4047 -84.0542 329° Northwest 367 422 36,000  Level Indianapolis Center
05:18PM 38.4942 -84.1197 330° Northwest 368 423 36,000  Level Indianapolis Center
05:19PM 38.5828 -84.1872 329° Northwest 370 426 36,000  Level Indianapolis Center
05:20PM 38.6778 -84.2594 329° Northwest 372 428 36,000  Level Indianapolis Center
05:21PM 38.7678 -84.3292 329° Northwest 374 430 36,000  Level Indianapolis Center
05:22PM 38.8583 -84.3978 329° Northwest 375 432 36,000  Level Indianapolis Center
05:23PM 38.9492 -84.4661 330° Northwest 375 432 36,000  Level Indianapolis Center
05:24PM 39.0394 -84.5361 329° Northwest 375 432 36,000 -180 Level Indianapolis Center
05:25PM 39.1311 -84.6058 329° Northwest 377 434 35,700 -660 Descending Indianapolis Center
05:26PM 39.2217 -84.6756 329° Northwest 376 433 34,700 -1,260 Descending Indianapolis Center
05:27PM 39.3292 -84.7594 329° Northwest 380 437 33,200 -1,620 Descending Indianapolis Center
05:28PM 39.4217 -84.8311 329° Northwest 384 442 31,400 -1,860 Descending Indianapolis Center
05:29PM 39.5186 -84.9056 329° Northwest 392 451 29,400 -1,680 Descending Indianapolis Center
05:30PM 39.6089 -84.9761 329° Northwest 381 438 28,000 -720 Descending Indianapolis Center
05:31PM 39.6994 -85.0472 329° Northwest 381 438 28,000  Level Indianapolis Center
05:32PM 39.7908 -85.1194 329° Northwest 383 441 28,000  Level Indianapolis Center
05:33PM 39.8836 -85.1928 329° Northwest 387 445 28,000 -420 Level Indianapolis Center
05:34PM 39.9908 -85.2758 329° Northwest 383 441 27,200 -1,380 Descending Indianapolis Center
05:35PM 40.0806 -85.3489 328° Northwest 381 438 25,200 -1,740 Descending Indianapolis Center
05:36PM 40.1581 -85.4089 329° Northwest 386 444 24,000 -660 Descending Chicago Center
05:37PM 40.2511 -85.4817 329° Northwest 388 447 24,000  Level Chicago Center
05:38PM 40.3428 -85.5558 328° Northwest 388 447 24,000  Level Chicago Center
05:39PM 40.4353 -85.6300 329° Northwest 388 447 24,000  Level Chicago Center
05:40PM 40.5192 -85.7219 320° Northwest 394 453 24,000  Level Chicago Center
05:41PM 40.5864 -85.8350 308° West 390 449 24,000 -900 Level Chicago Center
05:42PM 40.6622 -85.9644 308° West 382 440 22,200 -1,020 Descending Chicago Center
05:43PM 40.7275 -86.0781 307° West 378 435 22,000 -120 Descending Chicago Center
05:44PM 40.7919 -86.1881 308° West 378 435 22,000  Level Chicago Center
05:45PM 40.8558 -86.2992 307° West 379 436 22,000 -120 Level Chicago Center
05:46PM 40.9206 -86.4100 308° West 381 438 21,800 -780 Descending Chicago Center
05:47PM 40.9842 -86.5214 307° West 380 437 20,500 -1,260 Descending Chicago Center
05:48PM 41.0475 -86.6331 307° West 381 438 19,200 -1,320 Descending Chicago Center
05:50PM 41.1181 -86.7536 308° West 380 437 17,800 -1,140 Descending Chicago Center
05:51PM 41.1797 -86.8644 306° West 377 434 16,900 -1,200 Descending Chicago Center
05:52PM 41.2544 -86.9972 307° West 377 434 15,400 -1,560 Descending Chicago Center
05:53PM 41.3139 -87.1022 307° West 363 418 13,700 -1,560 Descending Chicago Center
05:54PM 41.3717 -87.2025 308° West 348 400 12,200 -1,680 Descending Chicago Center
05:54PM 41.4000 -87.2333 321° Northwest 348 400 11,500 -1,020 Descending Chicago TRACON
05:55PM 41.4667 -87.3167 317° Northwest 350 403 11,000 -300 Descending Chicago TRACON
05:56PM 41.5500 -87.4000 323° Northwest 349 402 11,000  Level Chicago TRACON
05:57PM 41.6056 -87.4706 316° Northwest 347 399 11,000 -360 Level Chicago Center
05:58PM 41.6719 -87.5444 320° Northwest 320 368 10,400 -1,260 Descending Chicago Center
05:59PM 41.7303 -87.6117 319° Northwest 287 330 8,500 -1,500 Descending Chicago Center
06:00PM 41.7903 -87.6794 320° Northwest 286 329 7,400 -780 Descending Chicago Center
06:01PM 41.8728 -87.7194 340° North 291 335 7,000 -240 Descending Chicago Center
06:02PM 41.9436 -87.7172 North 261 300 7,000 -240 Level Chicago Center
06:03PM 42.0000 -87.7000 13° North 223 257 6,500 -960 Descending Chicago TRACON
06:04PM 42.0667 -87.6667 20° North 216 249 5,100 -1,320 Descending Chicago TRACON
06:05PM 42.1167 -87.7000 334° Northwest 196 226 3,900 -1,260 Descending Chicago TRACON
06:06PM 42.1167 -87.7500 270° West 170 196 2,600 -780 Descending Chicago TRACON
06:07PM 42.0833 -87.8000 228° Southwest 159 183 2,300 -300 Descending Chicago TRACON
06:08PM 42.0500 -87.8333 217° Southwest 151 174 2,100 -540 Descending Chicago TRACON
06:09PM 42.0167 -87.8667 217° Southwest 122 140 1,300 -780 Descending Chicago TRACON
06:11PM 41.9817 -87.9067 244° Southwest  Level Estimated